This is the latest recevied weather packets stored in our database for station/object SR9WXP. If no packets are shown the sender has not sent any weather packets the latest 1 day(s).
| Time | Temp. | Humidity | Pressure | Rain* | Wind** | Luminosity | Snow |
|---|---|---|---|---|---|---|---|
| 1777975067 | 16.67° C | 48% | 852.4 hPa | - | 3.58 m/s, 177° | - | - |
| 1777975007 | 16.67° C | 48% | 852.4 hPa | - | 3.58 m/s, 175° | - | - |
| 1777974887 | 16.11° C | 48% | 852.4 hPa | - | 3.13 m/s, 170° | - | - |
| 1777974764 | 16.11° C | 49% | 852.4 hPa | - | 3.13 m/s, 168° | - | - |
| 1777974646 | 16.11° C | 48% | 852.4 hPa | - | 4.02 m/s, 182° | - | - |
| 1777974525 | 16.11° C | 49% | 852.4 hPa | - | 4.92 m/s, 180° | - | - |
| 1777974464 | 16.11° C | 48% | 852.4 hPa | - | 4.92 m/s, 178° | - | - |
| 1777974406 | 16.11° C | 48% | 852.3 hPa | - | 4.92 m/s, 176° | - | - |
| 1777974284 | 16.11° C | 49% | 852.3 hPa | - | 4.47 m/s, 182° | - | - |
| 1777974161 | 16.11° C | 49% | 852.3 hPa | - | 3.58 m/s, 179° | - | - |
| 1777974042 | 16.11° C | 49% | 852.4 hPa | - | 2.68 m/s, 182° | - | - |
| 1777973861 | 16.11° C | 49% | 852.3 hPa | - | 4.92 m/s, 188° | - | - |
| 1777973801 | 16.11° C | 49% | 852.3 hPa | - | 5.36 m/s, 187° | - | - |
| 1777973681 | 16.11° C | 49% | 852.3 hPa | - | 4.47 m/s, 173° | - | - |
| 1777973557 | 16.11° C | 49% | 852.4 hPa | - | 3.13 m/s, 174° | - | - |
| 1777973439 | 15.56° C | 49% | 852.4 hPa | - | 3.13 m/s, 174° | - | - |
| 1777973257 | 15.56° C | 49% | 852.5 hPa | - | 4.47 m/s, 176° | - | - |
| 1777973199 | 15.56° C | 49% | 852.5 hPa | - | 4.02 m/s, 174° | - | - |
| 1777972954 | 15° C | 49% | 852.6 hPa | - | 4.92 m/s, 174° | - | - |
| 1777972715 | 15° C | 49% | 852.6 hPa | - | 4.47 m/s, 174° | - | - |
| 1777972654 | 15.56° C | 49% | 852.5 hPa | - | 5.81 m/s, 180° | - | - |
| 1777972595 | 15.56° C | 49% | 852.5 hPa | - | 5.81 m/s, 178° | - | - |
| 1777972475 | 15.56° C | 50% | 852.5 hPa | - | 5.36 m/s, 183° | - | - |
| 1777972351 | 15.56° C | 50% | 852.5 hPa | - | 3.58 m/s, 174° | - | - |
| 1777972233 | 15.56° C | 50% | 852.6 hPa | - | 3.13 m/s, 175° | - | - |
* Rain since midnight (hover to see other rain measurements)
** Current wind speed in m/s (hover to see current wind gust speed)